.
WxDataArchive / Data Records for 2013-03-16
2013-03-15 March 2013 2013-03-17

Data Records for Saturday, 16 March 2013

Time	Temp	Chill	HIndex	Humid	Dewpt	 Wind 	HiWind	WindDir	Rain 	Barom 
-----	----	-----	------	-----	-----	------	------	-------	-----	----- 
00:00	40.9	40.9	40.9	94	39.3	0	0	---	0.00	29.788 
00:05	40.9	40.9	40.9	94	39.3	0	0	---	0.00	29.788 
00:10	40.8	40.8	40.8	94	39.2	0	0	---	0.00	29.788 
00:15	40.6	40.6	40.6	94	39.0	0	0	---	0.00	29.786 
00:20	40.6	40.6	40.6	94	39.0	0	0	---	0.00	29.786 
00:25	40.8	40.8	40.8	94	39.2	0	0	---	0.00	29.786 
00:30	40.8	40.8	40.8	94	39.2	0	0	---	0.00	29.799 
00:35	40.8	40.8	40.8	94	39.2	0	1	158	0.00	29.799 
00:40	40.8	40.8	40.8	94	39.2	0	0	---	0.00	29.799 
00:45	40.8	40.8	40.8	94	39.2	0	2	180	0.00	29.798 
00:50	40.8	40.8	40.8	94	39.2	0	0	---	0.00	29.798 
00:55	40.8	40.8	40.8	95	39.5	0	0	---	0.00	29.798 
01:00	40.9	40.9	40.9	95	39.6	0	1	180	0.00	29.785 
01:05	40.9	40.9	40.9	95	39.6	0	0	---	0.00	29.785 
01:10	40.9	40.9	40.9	95	39.6	0	0	---	0.00	29.785 
01:15	40.9	40.9	40.9	95	39.6	0	0	---	0.00	29.767 
01:20	40.9	40.9	40.9	95	39.6	0	1	180	0.00	29.767 
01:25	40.9	40.9	40.9	95	39.6	0	0	---	0.00	29.767 
01:30	40.9	40.9	40.9	95	39.6	0	1	180	0.00	29.740 
01:35	40.8	40.8	40.8	95	39.5	0	1	180	0.00	29.740 
01:40	40.8	40.8	40.8	95	39.5	1	5	112	0.00	29.740 
01:45	40.6	40.6	40.6	94	39.0	1	3	90	0.00	29.719 
01:50	40.5	40.5	40.5	95	39.2	1	4	112	0.00	29.719 
01:55	40.5	40.5	40.5	95	39.2	1	4	112	0.00	29.719 
02:00	40.3	40.3	40.3	95	39.0	1	3	112	0.00	29.707 
02:05	40.2	40.2	40.2	95	38.9	1	3	112	0.00	29.707 
02:10	40.2	40.2	40.2	95	38.9	1	6	112	0.00	29.707 
02:15	40.2	40.2	40.2	95	38.9	2	7	90	0.00	29.703 
02:20	40.2	40.2	40.2	95	38.9	0	3	90	0.00	29.703 
02:25	40.2	40.2	40.2	95	38.9	2	7	90	0.00	29.703 
02:30	40.2	40.2	40.2	95	38.9	1	5	90	0.00	29.701 
02:35	40.2	40.2	40.2	95	38.9	2	6	90	0.00	29.701 
02:40	40.2	40.2	40.2	95	38.9	1	5	90	0.00	29.701 
02:45	40.2	40.2	40.2	95	38.9	1	3	90	0.00	29.699 
02:50	40.2	40.2	40.2	95	38.9	1	3	90	0.00	29.699 
02:55	40.2	40.2	40.2	95	38.9	1	5	90	0.00	29.699 
03:00	40.2	40.2	40.2	95	38.9	1	4	112	0.00	29.698 
03:05	40.2	40.2	40.2	95	38.9	1	5	112	0.00	29.698 
03:10	40.2	40.2	40.2	95	38.9	1	4	90	0.00	29.698 
03:15	40.2	40.2	40.2	95	38.9	1	4	112	0.00	29.700 
03:20	40.1	40.1	40.1	95	38.8	2	5	112	0.00	29.700 
03:25	40.1	40.1	40.1	96	39.1	2	6	112	0.01	29.700 
03:30	40.1	40.1	40.1	95	38.8	2	6	90	0.00	29.686 
03:35	40.1	40.1	40.1	96	39.1	1	5	90	0.00	29.686 
03:40	40.1	40.1	40.1	96	39.1	0	3	90	0.00	29.686 
03:45	40.1	40.1	40.1	96	39.1	2	6	90	0.00	29.687 
03:50	40.1	40.1	40.1	96	39.1	2	6	90	0.00	29.687 
03:55	40.1	40.1	40.1	96	39.1	3	9	112	0.00	29.687 
04:00	39.8	39.8	39.8	96	38.8	2	6	90	0.00	29.677 
04:05	39.6	39.6	39.6	96	38.6	2	11	90	0.00	29.677 
04:10	39.5	39.5	39.5	96	38.5	2	5	112	0.00	29.677 
04:15	39.3	39.3	39.3	96	38.3	1	6	112	0.00	29.678 
04:20	39.1	39.1	39.1	95	37.8	2	8	112	0.00	29.678 
04:25	38.6	38.6	38.6	95	37.3	3	10	112	0.00	29.678 
04:30	38.3	38.3	38.3	96	37.3	3	7	112	0.00	29.675 
04:35	38.0	35.0	38.0	96	37.0	4	10	112	0.00	29.675 
04:40	37.9	37.9	37.9	96	36.9	1	6	112	0.00	29.675 
04:45	37.8	37.8	37.8	96	36.8	2	7	112	0.00	29.682 
04:50	37.6	37.6	37.6	96	36.6	1	5	112	0.00	29.682 
04:55	37.5	37.5	37.5	96	36.5	1	5	112	0.00	29.682 
05:00	37.3	37.3	37.3	96	36.3	3	10	112	0.00	29.691 
05:05	37.2	37.2	37.2	96	36.2	2	7	90	0.00	29.691 
05:10	36.9	36.9	36.9	96	35.9	2	7	135	0.00	29.691 
05:15	36.9	36.9	36.9	96	35.9	2	5	112	0.00	29.690 
05:20	36.8	36.8	36.8	96	35.8	2	7	90	0.00	29.690 
05:25	36.6	36.6	36.6	96	35.6	1	6	90	0.00	29.690 
05:30	36.6	36.6	36.6	96	35.6	2	6	112	0.00	29.683 
05:35	36.5	36.5	36.5	96	35.5	2	7	90	0.00	29.683 
05:40	36.3	33.0	36.3	96	35.3	4	12	112	0.00	29.683 
05:45	36.2	36.2	36.2	96	35.2	3	9	112	0.00	29.668 
05:50	36.0	31.8	36.0	96	35.0	5	12	112	0.00	29.668 
05:55	35.9	30.9	35.9	96	34.9	6	11	90	0.00	29.668 
06:00	35.9	32.6	35.9	96	34.9	4	8	90	0.00	29.653 
06:05	35.9	31.7	35.9	96	34.9	5	12	90	0.00	29.653 
06:10	35.9	32.6	35.9	96	34.9	4	11	112	0.00	29.653 
06:15	35.9	31.7	35.9	96	34.9	5	12	90	0.00	29.645 
06:20	35.8	32.5	35.8	96	34.8	4	11	112	0.00	29.645 
06:25	35.9	35.9	35.9	96	34.9	3	7	112	0.00	29.645 
06:30	35.9	35.9	35.9	96	34.9	3	8	112	0.00	29.663 
06:35	35.9	32.6	35.9	96	34.9	4	9	112	0.00	29.663 
06:40	35.9	35.9	35.9	96	34.9	1	5	112	0.00	29.663 
06:45	35.9	35.9	35.9	96	34.9	1	5	45	0.00	29.692 
06:50	35.8	35.8	35.8	96	34.8	1	5	112	0.00	29.692 
06:55	35.8	35.8	35.8	96	34.8	3	6	90	0.00	29.692 
07:00	35.6	35.6	35.6	96	34.6	1	5	90	0.00	29.690 
07:05	35.6	35.6	35.6	96	34.6	3	11	112	0.00	29.690 
07:10	35.5	35.5	35.5	96	34.5	1	5	90	0.00	29.690 
07:15	35.5	35.5	35.5	96	34.5	2	5	112	0.00	29.693 
07:20	35.3	35.3	35.3	96	34.3	3	7	90	0.00	29.693 
07:25	35.3	35.3	35.3	96	34.3	3	10	90	0.00	29.693 
07:30	35.3	35.3	35.3	96	34.3	3	9	112	0.00	29.694 
07:35	35.2	35.2	35.2	96	34.2	2	9	112	0.00	29.694 
07:40	35.2	31.8	35.2	96	34.2	4	12	90	0.00	29.694 
07:45	35.0	30.6	35.0	96	34.0	5	13	90	0.00	29.692 
07:50	35.0	30.6	35.0	96	34.0	5	13	112	0.00	29.692 
07:55	35.0	31.5	35.0	96	34.0	4	12	90	0.00	29.692 
08:00	34.9	34.9	34.9	96	33.9	3	9	90	0.00	29.692 
08:05	34.9	34.9	34.9	96	33.9	2	7	90	0.00	29.692 
08:10	34.9	31.4	34.9	96	33.9	4	10	112	0.00	29.692 
08:15	34.9	34.9	34.9	96	33.9	3	10	112	0.00	29.708 
08:20	34.9	34.9	34.9	96	33.9	2	7	112	0.00	29.708 
08:25	34.9	34.9	34.9	96	33.9	2	6	112	0.00	29.708 
08:30	34.7	34.7	34.7	96	33.7	1	5	112	0.00	29.709 
08:35	34.7	34.7	34.7	96	33.7	2	7	90	0.00	29.709 
08:40	34.6	34.6	34.6	96	33.6	2	5	90	0.00	29.709 
08:45	34.4	34.4	34.4	96	33.4	3	10	90	0.00	29.702 
08:50	34.3	34.3	34.3	96	33.3	3	8	90	0.00	29.702 
08:55	34.3	34.3	34.3	96	33.3	1	5	68	0.00	29.702 
09:00	34.1	34.1	34.1	96	33.1	3	9	112	0.00	29.714 
09:05	34.1	34.1	34.1	96	33.1	1	5	68	0.00	29.714 
09:10	34.0	34.0	34.0	96	33.0	1	5	45	0.00	29.714 
09:15	33.8	33.8	33.8	96	32.8	1	6	22	0.00	29.727 
09:20	33.7	33.7	33.7	96	32.7	2	7	112	0.00	29.727 
09:25	33.7	33.7	33.7	96	32.7	1	4	112	0.00	29.727 
09:30	33.5	33.5	33.5	96	32.5	2	9	90	0.00	29.719 
09:35	33.4	33.4	33.4	96	32.4	1	5	90	0.00	29.719 
09:40	33.5	33.5	33.5	96	32.5	2	7	90	0.00	29.719 
09:45	33.5	33.5	33.5	96	32.5	2	9	112	0.00	29.719 
09:50	33.5	33.5	33.5	96	32.5	2	7	112	0.00	29.719 
09:55	33.4	33.4	33.4	96	32.4	1	6	68	0.00	29.719 
10:00	33.4	33.4	33.4	96	32.4	1	5	112	0.00	29.718 
10:05	33.2	33.2	33.2	96	32.2	1	5	112	0.00	29.718 
10:10	33.2	33.2	33.2	96	32.2	1	3	112	0.00	29.718 
10:15	33.1	33.1	33.1	96	32.1	1	3	90	0.00	29.721 
10:20	33.2	33.2	33.2	96	32.2	1	5	90	0.00	29.721 
10:25	33.4	33.4	33.4	96	32.4	1	6	112	0.00	29.721 
10:30	33.2	33.2	33.2	96	32.2	1	3	45	0.00	29.728 
10:35	33.2	33.2	33.2	96	32.2	0	4	90	0.00	29.728 
10:40	33.1	33.1	33.1	96	32.1	1	3	90	0.00	29.728 
10:45	33.1	33.1	33.1	96	32.1	1	5	112	0.00	29.740 
10:50	33.1	33.1	33.1	96	32.1	0	3	112	0.00	29.740 
10:55	33.1	33.1	33.1	96	32.1	1	5	112	0.00	29.740 
11:00	33.1	33.1	33.1	96	32.1	1	5	45	0.00	29.744 
11:05	33.1	33.1	33.1	96	32.1	1	3	338	0.00	29.744 
11:10	32.9	32.9	32.9	96	31.9	0	3	292	0.00	29.744 
11:15	32.9	32.9	32.9	96	31.9	1	3	0	0.00	29.750 
11:20	33.1	33.1	33.1	96	32.1	0	3	45	0.00	29.750 
11:25	32.9	32.9	32.9	96	31.9	1	3	0	0.00	29.750 
11:30	32.8	32.8	32.8	96	31.8	1	3	338	0.00	29.773 
11:35	32.8	32.8	32.8	96	31.8	0	2	338	0.00	29.773 
11:40	32.8	32.8	32.8	96	31.8	1	3	0	0.00	29.773 
11:45	32.8	32.8	32.8	96	31.8	1	3	0	0.00	29.777 
11:50	32.8	32.8	32.8	96	31.8	0	2	0	0.00	29.777 
11:55	32.8	32.8	32.8	96	31.8	1	3	0	0.00	29.777 
12:00	32.7	32.7	32.7	96	31.7	1	4	0	0.00	29.794 
12:05	32.8	32.8	32.8	96	31.8	0	2	0	0.00	29.794 
12:10	32.8	32.8	32.8	96	31.8	1	2	338	0.00	29.794 
12:15	32.7	32.7	32.7	96	31.7	1	2	338	0.00	29.802 
12:20	32.7	32.7	32.7	96	31.7	0	3	338	0.00	29.802 
12:25	32.7	32.7	32.7	96	31.7	1	5	338	0.00	29.802 
12:30	32.5	32.5	32.5	96	31.5	1	4	292	0.00	29.810 
12:35	32.7	32.7	32.7	96	31.7	1	5	0	0.00	29.810 
12:40	32.7	32.7	32.7	96	31.7	1	3	315	0.00	29.810 
12:45	32.5	32.5	32.5	96	31.5	1	3	338	0.00	29.819 
12:50	32.5	32.5	32.5	96	31.5	1	4	338	0.00	29.819 
12:55	32.7	32.7	32.7	96	31.7	0	2	315	0.00	29.819 
13:00	32.7	32.7	32.7	96	31.7	1	2	315	0.00	29.826 
13:05	32.8	32.8	32.8	96	31.8	1	4	0	0.00	29.826 
13:10	32.8	32.8	32.8	96	31.8	0	2	338	0.00	29.826 
13:15	32.9	32.9	32.9	96	31.9	1	3	338	0.00	29.842 
13:20	32.9	32.9	32.9	96	31.9	1	6	338	0.00	29.842 
13:25	32.8	32.8	32.8	96	31.8	1	3	0	0.00	29.842 
13:30	32.8	32.8	32.8	96	31.8	2	5	270	0.00	29.852 
13:35	32.8	32.8	32.8	96	31.8	1	4	338	0.00	29.852 
13:40	32.9	32.9	32.9	95	31.6	1	4	315	0.00	29.852 
13:45	32.9	32.9	32.9	95	31.6	1	4	338	0.00	29.858 
13:50	33.1	33.1	33.1	95	31.8	1	5	0	0.00	29.858 
13:55	33.2	33.2	33.2	95	31.9	0	2	0	0.00	29.858 
14:00	33.4	33.4	33.4	95	32.1	1	2	338	0.00	29.864 
14:05	33.4	33.4	33.4	95	32.1	1	3	0	0.00	29.864 
14:10	33.4	33.4	33.4	95	32.1	1	3	315	0.00	29.864 
14:15	33.4	33.4	33.4	95	32.1	1	5	292	0.00	29.867 
14:20	33.5	33.5	33.5	94	32.0	1	4	292	0.00	29.867 
14:25	33.5	33.5	33.5	94	32.0	0	2	292	0.00	29.867 
14:30	33.5	33.5	33.5	94	32.0	1	5	292	0.00	29.873 
14:35	33.5	33.5	33.5	93	31.7	1	3	292	0.00	29.873 
14:40	33.5	33.5	33.5	93	31.7	1	3	292	0.00	29.873 
14:45	33.4	33.4	33.4	93	31.6	1	4	338	0.00	29.886 
14:50	33.4	33.4	33.4	93	31.6	0	2	338	0.00	29.886 
14:55	33.4	33.4	33.4	92	31.3	1	4	338	0.00	29.886 
15:00	33.4	33.4	33.4	92	31.3	1	4	315	0.00	29.889 
15:05	33.5	33.5	33.5	92	31.4	1	2	292	0.00	29.889 
15:10	33.5	33.5	33.5	91	31.2	1	5	338	0.00	29.889 
15:15	33.5	33.5	33.5	91	31.2	1	4	315	0.00	29.893 
15:20	33.5	33.5	33.5	91	31.2	0	3	292	0.00	29.893 
15:25	33.5	33.5	33.5	90	30.9	0	2	292	0.00	29.893 
15:30	33.4	33.4	33.4	90	30.8	1	4	315	0.00	29.902 
15:35	33.4	33.4	33.4	89	30.5	1	2	338	0.00	29.902 
15:40	33.4	33.4	33.4	89	30.5	1	3	338	0.00	29.902 
15:45	33.4	33.4	33.4	89	30.5	1	3	22	0.00	29.911 
15:50	33.2	33.2	33.2	89	30.3	1	4	338	0.00	29.911 
15:55	33.1	33.1	33.1	88	29.9	1	5	0	0.00	29.911 
16:00	32.9	32.9	32.9	88	29.7	1	4	338	0.00	29.919 
16:05	32.9	32.9	32.9	88	29.7	2	6	270	0.00	29.919 
16:10	33.1	33.1	33.1	88	29.9	0	3	248	0.00	29.919 
16:15	33.1	33.1	33.1	87	29.7	1	3	315	0.00	29.923 
16:20	33.1	33.1	33.1	87	29.7	1	3	0	0.00	29.923 
16:25	33.1	33.1	33.1	87	29.7	1	3	338	0.00	29.923 
16:30	33.1	33.1	33.1	87	29.7	1	3	0	0.00	29.927 
16:35	33.2	33.2	33.2	86	29.5	1	3	338	0.00	29.927 
16:40	33.2	33.2	33.2	86	29.5	1	4	315	0.00	29.927 
16:45	33.2	33.2	33.2	86	29.5	1	4	270	0.00	29.933 
16:50	33.1	33.1	33.1	85	29.1	1	5	338	0.00	29.933 
16:55	33.1	33.1	33.1	84	28.8	1	4	338	0.00	29.933 
17:00	33.1	33.1	33.1	84	28.8	1	4	338	0.00	29.937 
17:05	33.1	33.1	33.1	83	28.5	1	4	338	0.00	29.937 
17:10	32.9	32.9	32.9	82	28.0	1	4	0	0.00	29.937 
17:15	32.9	32.9	32.9	82	28.0	1	3	338	0.00	29.951 
17:20	32.9	32.9	32.9	82	28.0	1	3	338	0.00	29.951 
17:25	32.8	32.8	32.8	81	27.6	1	5	338	0.00	29.951 
17:30	32.8	32.8	32.8	81	27.6	1	5	338	0.00	29.956 
17:35	32.9	32.9	32.9	81	27.7	1	3	270	0.00	29.956 
17:40	32.9	32.9	32.9	80	27.4	1	3	338	0.00	29.956 
17:45	32.9	32.9	32.9	80	27.4	1	4	338	0.00	29.967 
17:50	32.9	32.9	32.9	79	27.1	1	3	338	0.00	29.967 
17:55	32.9	32.9	32.9	79	27.1	1	3	338	0.00	29.967 
18:00	32.9	32.9	32.9	79	27.1	1	5	0	0.00	29.974 
18:05	32.9	32.9	32.9	78	26.8	1	3	338	0.00	29.974 
18:10	32.9	32.9	32.9	78	26.8	1	3	0	0.00	29.974 
18:15	33.1	33.1	33.1	78	27.0	0	1	0	0.00	29.975 
18:20	33.1	33.1	33.1	78	27.0	0	1	0	0.00	29.975 
18:25	33.1	33.1	33.1	78	27.0	0	2	0	0.00	29.975 
18:30	33.1	33.1	33.1	77	26.7	0	3	0	0.00	29.983 
18:35	33.1	33.1	33.1	77	26.7	1	3	0	0.00	29.983 
18:40	33.1	33.1	33.1	77	26.7	0	2	0	0.00	29.983 
18:45	33.1	33.1	33.1	77	26.7	1	3	338	0.00	29.987 
18:50	33.1	33.1	33.1	77	26.7	1	3	315	0.00	29.987 
18:55	32.9	32.9	32.9	77	26.5	0	3	315	0.00	29.987 
19:00	32.9	32.9	32.9	77	26.5	0	1	315	0.00	29.987 
19:05	32.9	32.9	32.9	76	26.2	0	2	315	0.00	29.987 
19:10	32.8	32.8	32.8	76	26.1	0	2	315	0.00	29.987 
19:15	32.8	32.8	32.8	76	26.1	0	3	338	0.00	29.993 
19:20	32.8	32.8	32.8	76	26.1	0	2	338	0.00	29.993 
19:25	32.7	32.7	32.7	75	25.7	0	3	22	0.00	29.993 
19:30	32.7	32.7	32.7	75	25.7	0	2	22	0.00	30.002 
19:35	32.7	32.7	32.7	75	25.7	0	1	22	0.00	30.002 
19:40	32.5	32.5	32.5	76	25.8	0	2	338	0.00	30.002 
19:45	32.5	32.5	32.5	76	25.8	0	3	338	0.00	30.006 
19:50	32.5	32.5	32.5	76	25.8	0	2	338	0.00	30.006 
19:55	32.4	32.4	32.4	75	25.4	0	2	338	0.00	30.006 
20:00	32.4	32.4	32.4	75	25.4	0	2	338	0.00	30.020 
20:05	32.4	32.4	32.4	75	25.4	0	2	338	0.00	30.020 
20:10	32.2	32.2	32.2	75	25.2	0	2	338	0.00	30.020 
20:15	32.2	32.2	32.2	75	25.2	0	1	338	0.00	30.022 
20:20	32.1	32.1	32.1	75	25.1	1	3	338	0.00	30.022 
20:25	32.1	32.1	32.1	75	25.1	0	1	338	0.00	30.022 
20:30	32.1	32.1	32.1	75	25.1	0	2	338	0.00	30.023 
20:35	32.1	32.1	32.1	75	25.1	0	1	338	0.00	30.023 
20:40	31.9	31.9	31.9	75	24.9	0	2	338	0.00	30.023 
20:45	31.9	31.9	31.9	75	24.9	0	2	338	0.00	30.022 
20:50	31.9	31.9	31.9	76	25.2	0	1	338	0.00	30.022 
20:55	31.9	31.9	31.9	75	24.9	1	4	270	0.00	30.022 
21:00	31.8	31.8	31.8	75	24.8	0	2	270	0.00	30.027 
21:05	31.8	31.8	31.8	75	24.8	0	1	270	0.00	30.027 
21:10	31.8	31.8	31.8	75	24.8	0	2	270	0.00	30.027 
21:15	31.8	31.8	31.8	75	24.8	0	2	270	0.00	30.034 
21:20	31.8	31.8	31.8	75	24.8	0	1	270	0.00	30.034 
21:25	31.8	31.8	31.8	75	24.8	0	0	---	0.00	30.034 
21:30	31.8	31.8	31.8	75	24.8	0	2	270	0.00	30.038 
21:35	31.8	31.8	31.8	76	25.1	0	0	---	0.00	30.038 
21:40	31.8	31.8	31.8	76	25.1	0	2	292	0.00	30.038 
21:45	31.8	31.8	31.8	75	24.8	0	2	292	0.00	30.041 
21:50	31.6	31.6	31.6	75	24.6	0	1	292	0.00	30.041 
21:55	31.6	31.6	31.6	75	24.6	1	3	315	0.00	30.041 
22:00	31.6	31.6	31.6	75	24.6	0	2	315	0.00	30.041 
22:05	31.6	31.6	31.6	75	24.6	0	2	315	0.00	30.041 
22:10	31.5	31.5	31.5	75	24.5	1	3	315	0.00	30.041 
22:15	31.5	31.5	31.5	74	24.2	0	2	315	0.00	30.043 
22:20	31.5	31.5	31.5	74	24.2	0	2	338	0.00	30.043 
22:25	31.5	31.5	31.5	73	23.9	0	3	338	0.00	30.043 
22:30	31.6	31.6	31.6	73	24.0	0	2	315	0.00	30.047 
22:35	31.6	31.6	31.6	73	24.0	0	0	---	0.00	30.047 
22:40	31.6	31.6	31.6	74	24.3	0	1	315	0.00	30.047 
22:45	31.6	31.6	31.6	74	24.3	0	0	---	0.00	30.064 
22:50	31.6	31.6	31.6	74	24.3	0	0	---	0.00	30.064 
22:55	31.6	31.6	31.6	75	24.6	0	0	---	0.00	30.064 
23:00	31.6	31.6	31.6	75	24.6	0	0	---	0.00	30.070 
23:05	31.8	31.8	31.8	75	24.8	0	0	---	0.00	30.070 
23:10	31.8	31.8	31.8	75	24.8	0	1	315	0.00	30.070 
23:15	31.8	31.8	31.8	75	24.8	0	2	270	0.00	30.077 
23:20	31.8	31.8	31.8	75	24.8	0	1	270	0.00	30.077 
23:25	31.8	31.8	31.8	75	24.8	0	1	270	0.00	30.077 
23:30	31.9	31.9	31.9	75	24.9	0	1	270	0.00	30.080 
23:35	31.9	31.9	31.9	75	24.9	0	0	---	0.00	30.080 
23:40	31.9	31.9	31.9	75	24.9	0	1	270	0.00	30.080 
23:45	31.9	31.9	31.9	75	24.9	0	0	---	0.00	30.085 
23:50	31.9	31.9	31.9	75	24.9	0	0	---	0.00	30.085 
23:55	31.9	31.9	31.9	75	24.9	0	2	270	0.00	30.085 

CoCoRaHS
IN-AL-39
A2 Web Hosting
Creative Commons License
GoDaddy
search engine by freefind advanced

loaded 2018-11-20 06:32:37 • last modified 2010-11-18 10:43:29
Privacy PolicyDisclaimer
• wx.awcolley.com is powered by PmWiki v.2002016 •
• all content (unless otherwise noted) © 2018 A W Colley